PAGY/SGY METAR and TAF weather

Enter ICAO airport designator
Station Type Date Time Source
PAGY METAR 2021/09/24 05:53 UTC NOAA

PAGY 240553Z AUTO 00000KT 5SM RA BR OVC055 07/06 A2952 RMK AO2 SLP997 P0006 60024 T00670061 10072 20067 58040 TSNO


Station Type Date Time Source
PAGY Decoded METAR 2021/09/24 05:53 UTC NOAA

SKAGWAY AIRPORT, AK, United States (PAGY) 59-28N 135-19W 5M
Sep 24, 2021 - 01:53 AM EDT / 2021.09.24 0553 UTC
Wind: Calm:0
Visibility: 5 mile(s):0
Sky conditions: overcast
Weather: rain; mist
Precipitation last hour: 0.06 inches
Temperature: 44.1 F (6.7 C)
Dew Point: 43.0 F (6.1 C)
Relative Humidity: 95%
Pressure (altimeter): 29.52 in. Hg (999 hPa)
Pressure tendency: 0.12 inches (4.0 hPa) lower than three hours ago
ob: PAGY 240553Z AUTO 00000KT 5SM RA BR OVC055 07/06 A2952 RMK AO2 SLP997 P0006 60024 T00670061 10072 20067 58040 TSNO
cycle: 6

Station Type Date Time Source
PAGY TAF 2021/09/24 06:46 UTC NOAA

TAF PAGY 240544Z 2406/2506 VRB06KT P6SM -RA SCT020 OVC050 WS020/18045KT
TEMPO 2406/2410 BKN020 OVC050
FM241000 21012G20KT 6SM -SHRA BR OVC025
FM241600 21025G40KT P6SM VCSH OVC040
AMD LTD TO CLD VIS AND WIND

Example: see airport list